Time;durP1;ratioP1;P1;durP2;ratioP2;P2;SDS_P1;SDS_P2;PMS_P1;PMS_P2;Temp;Humidity;BMP_temperature;BMP_pressure;BME280_temperature;BME280_humidity;BME280_pressure;Samples;Min_cycle;Max_cycle;Signal;HPM_P1;HPM_P2
2021/01/24 00:00:54;;;;;;;9.88;3.08;;;;;;;1.53;76.28;99053.09;4981869;28;20050;-51
2021/01/24 00:03:24;;;;;;;8.23;2.10;;;;;;;1.48;76.37;99056.00;4964821;28;20489;-52
2021/01/24 00:05:51;;;;;;;8.68;3.47;;;;;;;1.44;76.75;99048.78;4989894;28;20100;-47
2021/01/24 00:08:17;;;;;;;10.40;4.35;;;;;;;1.40;76.84;99039.66;4991046;28;20088;-53
2021/01/24 00:10:43;;;;;;;14.35;4.47;;;;;;;1.36;77.06;99042.22;4990165;28;20046;-47
2021/01/24 00:13:10;;;;;;;4.63;2.05;;;;;;;1.34;77.37;99039.03;4993779;28;20488;-50
2021/01/24 00:15:36;;;;;;;7.57;3.63;;;;;;;1.32;77.79;99024.13;4990190;28;20061;-51
2021/01/24 00:18:04;;;;;;;3.63;2.05;;;;;;;1.28;77.87;99018.53;4994221;28;20056;-48
2021/01/24 00:20:30;;;;;;;4.65;1.85;;;;;;;1.24;78.20;99014.88;5004557;28;20033;-51
2021/01/24 00:23:00;;;;;;;5.55;1.52;;;;;;;1.22;78.55;98998.00;4997073;28;20399;-53
2021/01/24 00:25:26;;;;;;;3.03;1.40;;;;;;;1.21;78.76;99002.69;4977393;28;20070;-51
2021/01/24 00:27:53;;;;;;;5.13;1.83;;;;;;;1.18;79.08;99008.00;4984048;28;20502;-48
2021/01/24 00:30:20;;;;;;;7.50;2.70;;;;;;;1.18;79.24;98999.81;4983656;28;20050;-49
2021/01/24 00:32:46;;;;;;;5.05;2.72;;;;;;;1.18;79.78;98995.16;4994151;28;20054;-49
2021/01/24 00:35:14;;;;;;;6.22;3.08;;;;;;;1.22;79.21;98992.56;4994485;28;20058;-50
2021/01/24 00:37:40;;;;;;;5.38;2.38;;;;;;;1.22;79.42;98987.91;4993177;28;20089;-47
2021/01/24 00:40:08;;;;;;;6.35;2.33;;;;;;;1.20;80.10;98986.66;4982426;28;20050;-47
2021/01/24 00:42:36;;;;;;;6.65;2.55;;;;;;;1.18;79.97;98987.00;4974518;28;20054;-48
2021/01/24 00:45:05;;;;;;;7.20;3.22;;;;;;;1.18;79.85;98987.00;4993010;28;20061;-51
2021/01/24 00:47:31;;;;;;;7.80;2.70;;;;;;;1.22;80.01;98979.75;4994343;28;20053;-54
2021/01/24 00:50:01;;;;;;;3.75;1.83;;;;;;;1.23;79.98;98978.63;4994032;28;20046;-51
2021/01/24 00:52:29;;;;;;;6.05;1.63;;;;;;;1.23;80.12;98986.00;4992899;28;20097;-51
2021/01/24 00:54:56;;;;;;;10.50;2.75;;;;;;;1.23;79.91;98978.63;4993373;28;20049;-52
2021/01/24 00:57:22;;;;;;;5.47;2.13;;;;;;;1.21;80.38;98982.81;4992789;28;20073;-48
2021/01/24 00:59:49;;;;;;;5.50;2.65;;;;;;;1.20;80.51;98973.03;4993504;28;20086;-49
2021/01/24 01:02:15;;;;;;;8.00;1.98;;;;;;;1.23;80.51;98966.91;4992902;28;20120;-47
2021/01/24 01:04:45;;;;;;;4.07;2.35;;;;;;;1.23;80.57;98956.81;4993999;28;20046;-48
2021/01/24 01:07:12;;;;;;;4.55;2.00;;;;;;;1.24;80.39;98958.41;4992326;28;20496;-50
2021/01/24 01:09:41;;;;;;;8.00;2.10;;;;;;;1.21;80.76;98952.81;4976924;28;20109;-49
2021/01/24 01:12:07;;;;;;;2.78;1.25;;;;;;;1.23;80.89;98964.19;4974837;28;20066;-52
2021/01/24 01:14:33;;;;;;;3.63;1.48;;;;;;;1.23;80.76;98958.75;4975157;28;20069;-53
2021/01/24 01:17:03;;;;;;;6.43;2.72;;;;;;;1.24;80.77;98954.91;4975314;28;20086;-50
2021/01/24 01:19:29;;;;;;;7.00;2.08;;;;;;;1.24;80.71;98947.50;4991715;28;20472;-50
2021/01/24 01:21:56;;;;;;;6.15;2.00;;;;;;;1.23;80.66;98939.66;4992123;28;20452;-50
2021/01/24 01:24:22;;;;;;;4.55;2.08;;;;;;;1.25;80.93;98942.84;4984100;28;20050;-50
2021/01/24 01:26:48;;;;;;;7.10;2.55;;;;;;;1.27;80.62;98948.00;4992992;28;20109;-53
2021/01/24 01:29:15;;;;;;;4.88;2.38;;;;;;;1.26;80.71;98936.28;4992175;28;20081;-50
2021/01/24 01:31:41;;;;;;;4.43;1.90;;;;;;;1.28;81.06;98942.19;4973510;28;20046;-51
2021/01/24 01:34:07;;;;;;;4.40;2.35;;;;;;;1.27;81.24;98935.16;4992436;28;20086;-49
2021/01/24 01:36:34;;;;;;;4.88;2.10;;;;;;;1.29;81.06;98935.63;4993719;28;20512;-50
2021/01/24 01:39:01;;;;;;;3.10;2.10;;;;;;;1.27;81.25;98929.72;4992510;28;20408;-52
2021/01/24 01:41:32;;;;;;;3.38;1.70;;;;;;;1.22;81.40;98927.16;4992896;28;20038;-49
2021/01/24 01:43:58;;;;;;;4.75;2.47;;;;;;;1.21;81.54;98920.13;4992538;28;20128;-51
2021/01/24 01:46:26;;;;;;;6.90;2.80;;;;;;;1.22;81.60;98918.97;4973764;28;20468;-47
2021/01/24 01:48:53;;;;;;;7.95;4.22;;;;;;;1.25;81.50;98929.22;4992803;28;20125;-50
2021/01/24 01:51:20;;;;;;;11.40;3.83;;;;;;;1.28;81.44;98919.59;4991929;28;20035;-50
2021/01/24 01:53:46;;;;;;;9.65;4.20;;;;;;;1.30;81.58;98920.09;4991590;28;20046;-51
2021/01/24 01:56:14;;;;;;;15.15;5.43;;;;;;;1.31;81.71;98914.28;4992497;28;20035;-50
2021/01/24 01:58:41;;;;;;;9.55;4.35;;;;;;;1.30;81.61;98918.13;4992765;28;20460;-53
2021/01/24 02:01:30;;;;;;;6.95;2.47;;;;;;;1.25;82.41;98912.88;4992027;28;20081;-50
2021/01/24 02:04:17;;;;;;;4.65;1.65;;;;;;;1.23;81.98;98915.13;4991244;28;20050;-47
2021/01/24 02:07:22;;;;;;;6.45;1.88;;;;;;;1.20;82.00;98913.88;4991029;28;20050;-49
2021/01/24 02:09:55;;;;;;;8.48;1.70;;;;;;;1.18;82.31;98910.69;4992379;28;20054;-52
2021/01/24 02:12:41;;;;;;;3.78;1.55;;;;;;;1.19;82.12;98912.25;4991246;28;20070;-50
2021/01/24 02:15:09;;;;;;;1.75;1.38;;;;;;;1.23;82.39;98906.97;4992343;28;20500;-50
2021/01/24 02:17:43;;;;;;;4.03;1.90;;;;;;;1.23;82.17;98907.75;4992218;28;20089;-48
2021/01/24 02:20:18;;;;;;;2.90;1.25;;;;;;;1.27;82.28;98912.56;4975422;28;20042;-51
2021/01/24 02:22:48;;;;;;;4.20;1.67;;;;;;;1.28;82.04;98914.94;4976778;28;20085;-49
2021/01/24 02:25:40;;;;;;;5.05;2.10;;;;;;;1.29;82.57;98915.75;4992526;28;20439;-52
2021/01/24 02:28:34;;;;;;;4.72;2.10;;;;;;;1.30;82.32;98907.22;4954785;28;20066;-48
2021/01/24 02:31:02;;;;;;;3.17;1.83;;;;;;;1.34;82.62;98905.47;4992046;28;20089;-51
2021/01/24 02:33:30;;;;;;;2.70;1.38;;;;;;;1.35;82.76;98909.75;4972271;28;20054;-52
2021/01/24 02:36:00;;;;;;;5.05;1.80;;;;;;;1.37;82.38;98904.00;4974828;28;20053;-47
2021/01/24 02:38:27;;;;;;;9.00;3.72;;;;;;;1.36;82.65;98905.94;4990973;28;20038;-53
2021/01/24 02:40:55;;;;;;;4.90;3.10;;;;;;;1.36;82.77;98894.22;4991935;28;20065;-50
2021/01/24 02:43:22;;;;;;;5.57;3.30;;;;;;;1.38;82.78;98897.44;4991676;28;20084;-50
2021/01/24 02:45:50;;;;;;;5.47;2.40;;;;;;;1.38;82.87;98891.97;4992382;28;20104;-49
2021/01/24 02:48:19;;;;;;;6.03;2.90;;;;;;;1.38;82.60;98887.31;4991513;28;20034;-53
2021/01/24 02:50:47;;;;;;;9.15;3.75;;;;;;;1.36;82.97;98892.28;4991369;28;20101;-48
2021/01/24 02:53:15;;;;;;;10.98;4.65;;;;;;;1.34;82.97;98899.19;4990936;28;20161;-50
2021/01/24 02:55:43;;;;;;;13.75;5.07;;;;;;;1.31;83.00;98889.75;4990294;28;20129;-49
2021/01/24 02:58:10;;;;;;;7.50;3.35;;;;;;;1.32;83.15;98890.56;4991861;28;20050;-49
2021/01/24 03:00:36;;;;;;;10.15;3.92;;;;;;;1.33;83.00;98892.13;4990972;28;20058;-52
2021/01/24 03:03:03;;;;;;;7.45;4.47;;;;;;;1.34;82.91;98886.38;4990562;28;20042;-51
2021/01/24 03:05:30;;;;;;;7.05;3.28;;;;;;;1.34;82.83;98891.03;4991457;28;20074;-47
2021/01/24 03:07:56;;;;;;;8.25;3.40;;;;;;;1.30;83.12;98888.16;4991801;28;20073;-50
2021/01/24 03:10:23;;;;;;;6.25;2.38;;;;;;;1.29;82.88;98889.28;4991368;28;20034;-51
2021/01/24 03:13:10;;;;;;;7.45;3.10;;;;;;;1.26;82.94;98889.94;4981186;28;20401;-49
2021/01/24 03:15:38;;;;;;;5.47;3.28;;;;;;;1.20;82.54;98880.34;4987996;28;20125;-47
2021/01/24 03:18:08;;;;;;;8.52;3.40;;;;;;;1.15;82.94;98878.63;4974352;28;20101;-50
2021/01/24 03:20:39;;;;;;;5.40;2.80;;;;;;;1.09;82.47;98881.84;4991688;28;20053;-51
2021/01/24 03:23:06;;;;;;;5.80;2.75;;;;;;;1.02;82.73;98878.84;4997819;28;20046;-49
2021/01/24 03:25:37;;;;;;;7.25;3.75;;;;;;;0.96;82.68;98874.69;5015591;28;20041;-47
2021/01/24 03:28:04;;;;;;;6.22;3.38;;;;;;;0.94;83.13;98885.13;5000349;28;20117;-49
2021/01/24 03:30:30;;;;;;;7.10;2.78;;;;;;;0.90;83.06;98889.66;4994620;28;20050;-50
2021/01/24 03:32:58;;;;;;;4.75;3.03;;;;;;;0.92;83.06;98879.22;4986720;28;20441;-49
2021/01/24 03:35:24;;;;;;;4.18;2.75;;;;;;;0.92;83.14;98890.91;4995775;28;20583;-49
2021/01/24 03:37:51;;;;;;;5.53;2.97;;;;;;;0.94;83.33;98883.22;4994798;28;20052;-50
2021/01/24 03:40:18;;;;;;;5.03;2.80;;;;;;;0.96;83.47;98891.03;4995126;28;20081;-47
2021/01/24 03:42:44;;;;;;;9.38;3.20;;;;;;;0.97;83.39;98888.00;4992515;28;20141;-47
2021/01/24 03:45:12;;;;;;;4.72;2.60;;;;;;;0.97;83.71;98879.03;4977793;28;20141;-49
2021/01/24 03:47:38;;;;;;;4.50;3.20;;;;;;;0.97;83.79;98871.66;4994172;28;20054;-48
2021/01/24 03:50:06;;;;;;;8.70;2.70;;;;;;;1.01;83.41;98880.75;4994700;28;20061;-48
2021/01/24 03:52:33;;;;;;;7.28;3.08;;;;;;;1.00;83.25;98873.72;4987776;28;20054;-48
2021/01/24 03:54:59;;;;;;;4.57;2.40;;;;;;;0.95;83.40;98884.81;4982574;28;20050;-49
2021/01/24 03:57:26;;;;;;;7.13;3.03;;;;;;;0.93;83.15;98872.63;4995134;28;20504;-48
2021/01/24 03:59:53;;;;;;;5.35;3.20;;;;;;;0.87;83.01;98865.78;4993916;28;20069;-51
2021/01/24 04:02:21;;;;;;;8.13;2.80;;;;;;;0.81;83.08;98869.81;4990001;28;20444;-47
2021/01/24 04:04:50;;;;;;;5.97;2.95;;;;;;;0.78;83.08;98865.00;4978097;28;20046;-48
2021/01/24 04:07:16;;;;;;;8.57;4.07;;;;;;;0.75;83.04;98868.38;4989814;28;20073;-49
2021/01/24 04:09:44;;;;;;;5.53;2.85;;;;;;;0.72;83.15;98864.38;4984590;28;20065;-47
2021/01/24 04:12:10;;;;;;;8.32;3.55;;;;;;;0.70;83.40;98865.84;4994169;28;20046;-50
2021/01/24 04:14:37;;;;;;;5.88;3.03;;;;;;;0.68;83.37;98868.09;4995055;28;20050;-49
2021/01/24 04:17:04;;;;;;;7.13;3.88;;;;;;;0.66;83.16;98857.53;4994260;28;20073;-49
2021/01/24 04:19:31;;;;;;;5.88;3.33;;;;;;;0.64;83.18;98859.00;4990293;28;20504;-49
2021/01/24 04:21:57;;;;;;;4.63;3.20;;;;;;;0.63;82.95;98868.28;4984906;28;20093;-47
2021/01/24 04:24:24;;;;;;;4.60;3.05;;;;;;;0.59;83.01;98868.91;4994867;28;20330;-48
2021/01/24 04:26:51;;;;;;;6.80;3.35;;;;;;;0.52;82.84;98855.00;4989917;28;20049;-55
2021/01/24 04:29:18;;;;;;;5.63;3.20;;;;;;;0.47;82.97;98857.91;4994030;28;20125;-50
2021/01/24 04:31:44;;;;;;;4.63;2.75;;;;;;;0.40;83.04;98857.59;4977396;28;20123;-49
2021/01/24 04:34:11;;;;;;;5.15;3.28;;;;;;;0.31;83.08;98856.84;4994685;28;20085;-49
2021/01/24 04:36:38;;;;;;;7.05;4.05;;;;;;;0.29;83.46;98856.34;4989236;28;20168;-46
2021/01/24 04:39:04;;;;;;;7.25;3.08;;;;;;;0.22;83.18;98850.59;4991044;28;20129;-48
2021/01/24 04:41:35;;;;;;;7.32;3.88;;;;;;;0.18;83.52;98846.94;4993936;28;20078;-47
2021/01/24 04:44:05;;;;;;;6.85;3.50;;;;;;;0.17;83.46;98850.78;4994110;28;20039;-48
2021/01/24 04:46:33;;;;;;;8.32;3.17;;;;;;;0.15;83.29;98841.34;4993514;28;20035;-52
2021/01/24 04:49:01;;;;;;;6.45;4.13;;;;;;;0.11;83.05;98841.16;4994083;28;20110;-49
2021/01/24 04:51:27;;;;;;;12.38;5.40;;;;;;;0.09;83.18;98846.13;4993761;28;20604;-48
2021/01/24 04:53:54;;;;;;;11.05;5.35;;;;;;;0.04;83.17;98848.22;4992491;28;20504;-47
2021/01/24 04:56:21;;;;;;;11.07;6.32;;;;;;;-0.02;83.39;98858.47;4977416;28;20070;-48
2021/01/24 04:58:48;;;;;;;8.20;5.60;;;;;;;-0.08;83.27;98840.75;4993077;28;20037;-49
2021/01/24 05:01:20;;;;;;;9.15;5.47;;;;;;;-0.12;83.22;98839.75;4993286;28;20053;-50
2021/01/24 05:03:48;;;;;;;6.90;5.03;;;;;;;-0.11;83.55;98841.38;4993924;28;20046;-47
2021/01/24 05:06:14;;;;;;;7.68;4.38;;;;;;;-0.15;83.36;98845.84;4993058;28;20073;-48
2021/01/24 05:08:45;;;;;;;9.52;4.25;;;;;;;-0.16;83.31;98842.31;4974575;28;20408;-48
2021/01/24 05:11:12;;;;;;;7.05;4.32;;;;;;;-0.17;83.44;98848.91;4982199;28;20051;-48
2021/01/24 05:13:39;;;;;;;8.18;4.47;;;;;;;-0.19;83.64;98840.25;4957532;28;20057;-49
2021/01/24 05:16:06;;;;;;;9.88;5.20;;;;;;;-0.22;83.31;98845.53;4983909;28;20134;-52
2021/01/24 05:18:34;;;;;;;7.60;4.10;;;;;;;-0.24;83.60;98842.34;4975580;28;20051;-48
2021/01/24 05:21:03;;;;;;;7.95;4.28;;;;;;;-0.23;83.23;98838.47;4981903;28;20042;-48
2021/01/24 05:23:30;;;;;;;8.35;4.00;;;;;;;-0.23;83.31;98838.47;4993397;28;20046;-50
2021/01/24 05:25:57;;;;;;;8.43;4.00;;;;;;;-0.21;83.10;98849.84;4993393;28;20046;-48
2021/01/24 05:28:26;;;;;;;9.00;4.25;;;;;;;-0.24;83.09;98839.63;4991372;28;20477;-50
2021/01/24 05:31:07;;;;;;;4.90;4.13;;;;;;;-0.29;83.03;98845.22;4992406;28;20143;-50
2021/01/24 05:33:41;;;;;;;6.50;4.18;;;;;;;-0.29;82.94;98850.66;4993337;28;20082;-51
2021/01/24 05:36:08;;;;;;;6.35;4.55;;;;;;;-0.29;83.10;98846.00;4992798;28;20053;-47
2021/01/24 05:38:34;;;;;;;9.25;4.55;;;;;;;-0.28;83.25;98852.25;4989796;28;20461;-49
2021/01/24 05:41:04;;;;;;;7.15;4.47;;;;;;;-0.28;83.06;98852.25;4992979;28;20481;-49
2021/01/24 05:43:42;;;;;;;7.85;3.92;;;;;;;-0.26;82.93;98855.44;4992287;28;20046;-48
2021/01/24 05:46:10;;;;;;;7.32;3.78;;;;;;;-0.22;83.10;98850.97;4992087;28;20050;-50
2021/01/24 05:48:55;;;;;;;7.63;4.63;;;;;;;-0.21;83.26;98858.00;4990163;28;20089;-48
2021/01/24 05:51:24;;;;;;;5.13;4.13;;;;;;;-0.17;83.28;98853.53;4992189;28;20093;-49
2021/01/24 05:53:50;;;;;;;9.07;4.60;;;;;;;-0.12;83.20;98845.19;4992488;28;20090;-49
2021/01/24 05:56:19;;;;;;;11.20;5.05;;;;;;;-0.08;83.49;98846.19;4991692;28;20038;-51
2021/01/24 05:58:53;;;;;;;6.75;5.32;;;;;;;-0.07;83.65;98847.75;4988997;28;20054;-55
2021/01/24 06:01:23;;;;;;;7.18;5.00;;;;;;;-0.07;83.53;98847.75;4991492;28;20043;-50
2021/01/24 06:03:52;;;;;;;9.68;4.70;;;;;;;-0.06;83.53;98854.81;4992339;28;20030;-48
2021/01/24 06:06:19;;;;;;;9.45;4.75;;;;;;;-0.04;84.09;98863.44;4991433;28;20046;-49
2021/01/24 06:08:46;;;;;;;10.55;5.35;;;;;;;0.01;84.01;98860.56;4992909;28;20559;-49
2021/01/24 06:11:14;;;;;;;7.65;5.30;;;;;;;0.08;84.21;98863.56;4992573;28;20074;-49
2021/01/24 06:13:44;;;;;;;8.63;5.60;;;;;;;0.14;84.68;98870.44;4992036;28;20038;-49
2021/01/24 06:16:20;;;;;;;10.65;6.15;;;;;;;0.20;84.53;98874.63;4992167;28;20078;-50
2021/01/24 06:18:49;;;;;;;11.45;6.18;;;;;;;0.25;84.26;98871.72;4977696;28;20081;-50
2021/01/24 06:21:25;;;;;;;9.32;6.22;;;;;;;0.27;84.35;98869.47;4991595;28;20124;-49
2021/01/24 06:24:24;;;;;;;9.88;6.28;;;;;;;0.27;84.42;98866.75;4992436;28;20074;-50
2021/01/24 06:26:58;;;;;;;8.93;5.50;;;;;;;0.28;84.23;98864.84;4988076;28;20046;-51
2021/01/24 06:29:26;;;;;;;9.32;6.47;;;;;;;0.31;84.27;98875.06;4992660;28;20073;-48
2021/01/24 06:31:54;;;;;;;12.77;6.80;;;;;;;0.31;84.36;98869.63;4974220;28;20042;-51
2021/01/24 06:34:38;;;;;;;10.32;6.80;;;;;;;0.32;84.47;98868.53;4992854;28;20664;-50
2021/01/24 06:37:07;;;;;;;9.93;6.53;;;;;;;0.34;84.61;98866.28;4990569;28;20042;-52
2021/01/24 06:39:50;;;;;;;13.68;6.90;;;;;;;0.33;84.30;98865.47;4992244;28;20070;-49
2021/01/24 06:42:42;;;;;;;10.70;7.05;;;;;;;0.28;84.26;98868.38;4991306;28;20109;-48
2021/01/24 06:45:24;;;;;;;10.60;7.03;;;;;;;0.26;84.21;98872.53;4991673;28;20089;-49
2021/01/24 06:47:50;;;;;;;9.25;6.88;;;;;;;0.24;84.51;98870.13;4991727;28;20125;-52
2021/01/24 06:50:46;;;;;;;13.25;7.18;;;;;;;0.22;84.48;98877.81;4992064;28;20042;-49
2021/01/24 06:53:18;;;;;;;12.95;7.65;;;;;;;0.20;84.80;98874.63;4989399;28;20085;-51
2021/01/24 06:55:52;;;;;;;;;;;;;;;0.18;85.06;98865.97;4992388;28;20066;-49
2021/01/24 06:58:32;;;;;;;10.20;7.40;;;;;;;0.18;84.90;98871.44;4978385;28;20348;-53
2021/01/24 07:01:20;;;;;;;15.68;8.48;;;;;;;0.20;84.80;98866.44;4983972;28;20452;-53
2021/01/24 07:03:48;;;;;;;13.05;8.43;;;;;;;0.22;84.58;98875.09;4974046;28;20050;-48
2021/01/24 07:06:33;;;;;;;12.85;8.43;;;;;;;0.21;84.73;98865.34;4991920;28;20049;-47
2021/01/24 07:09:00;;;;;;;14.48;8.13;;;;;;;0.22;84.93;98875.09;4973983;28;20042;-48
2021/01/24 07:11:59;;;;;;;15.75;9.45;;;;;;;0.21;84.82;98881.66;4971142;28;20121;-47
2021/01/24 07:14:31;;;;;;;17.17;9.48;;;;;;;0.20;85.10;98880.06;4964450;28;20058;-52
2021/01/24 07:17:07;;;;;;;19.42;8.93;;;;;;;0.18;85.27;98882.31;4972459;28;20125;-51
2021/01/24 07:19:37;;;;;;;15.15;8.70;;;;;;;0.18;84.96;98878.78;4941811;28;20138;-49
2021/01/24 07:22:05;;;;;;;15.40;8.80;;;;;;;0.18;85.04;98882.31;4989888;28;20065;-49
2021/01/24 07:24:31;;;;;;;21.08;10.07;;;;;;;0.17;85.05;98886.13;4990697;28;20043;-47
2021/01/24 07:26:59;;;;;;;16.42;9.07;;;;;;;0.16;85.17;98883.75;4987211;28;20485;-48
2021/01/24 07:29:25;;;;;;;15.50;9.32;;;;;;;0.14;85.06;98885.97;4991177;28;20053;-49
2021/01/24 07:31:54;;;;;;;16.73;8.85;;;;;;;0.14;85.29;98889.50;4988033;28;20137;-50
2021/01/24 07:34:22;;;;;;;17.55;9.82;;;;;;;0.13;85.02;98884.41;4991129;28;20053;-50
2021/01/24 07:36:51;;;;;;;16.10;8.55;;;;;;;0.10;85.01;98891.28;4991500;28;20054;-48
2021/01/24 07:39:17;;;;;;;17.73;10.38;;;;;;;0.10;85.08;98885.84;4991467;28;20058;-52
2021/01/24 07:41:45;;;;;;;16.75;9.25;;;;;;;0.07;85.16;98891.91;4990580;28;20463;-48
2021/01/24 07:44:12;;;;;;;17.23;10.82;;;;;;;0.04;84.96;98906.16;4966314;28;20114;-48
2021/01/24 07:46:38;;;;;;;17.60;10.00;;;;;;;0.00;85.09;98902.50;4984822;28;20043;-51
2021/01/24 07:49:05;;;;;;;22.13;10.30;;;;;;;-0.01;85.11;98904.41;4990798;28;20042;-52
2021/01/24 07:51:33;;;;;;;17.98;9.93;;;;;;;-0.01;85.11;98911.75;4988979;28;20046;-50
2021/01/24 07:54:01;;;;;;;23.63;9.82;;;;;;;-0.03;85.07;98916.72;4987679;28;20050;-49
2021/01/24 07:56:27;;;;;;;18.60;9.90;;;;;;;-0.01;84.61;98917.19;4991091;28;20073;-54
2021/01/24 07:58:54;;;;;;;22.60;10.30;;;;;;;-0.06;85.02;98925.53;4990620;28;20105;-49
2021/01/24 08:01:21;;;;;;;21.52;10.15;;;;;;;-0.10;84.90;98933.50;4989357;28;20048;-51
2021/01/24 08:03:48;;;;;;;26.88;12.05;;;;;;;-0.11;84.81;98928.41;4990852;28;20046;-51
2021/01/24 08:06:14;;;;;;;23.95;10.23;;;;;;;-0.12;85.05;98938.47;4991142;28;20042;-53
2021/01/24 08:08:42;;;;;;;21.92;10.57;;;;;;;-0.14;85.19;98946.16;4990398;28;20446;-48
2021/01/24 08:11:08;;;;;;;20.45;10.23;;;;;;;-0.12;85.29;98943.13;4990837;28;20078;-49
2021/01/24 08:13:36;;;;;;;16.45;9.70;;;;;;;-0.13;85.22;98946.94;4977412;28;20074;-50
2021/01/24 08:16:13;;;;;;;18.27;9.32;;;;;;;-0.15;85.38;98949.19;4981714;28;20489;-51
2021/01/24 08:18:43;;;;;;;21.75;9.80;;;;;;;-0.16;85.21;98947.59;4985152;28;20097;-51
2021/01/24 08:21:10;;;;;;;17.42;8.70;;;;;;;-0.18;85.27;98949.81;4977859;28;20098;-52
2021/01/24 08:23:37;;;;;;;19.17;9.05;;;;;;;-0.16;85.63;98958.47;4966165;28;20125;-53
2021/01/24 08:26:04;;;;;;;19.63;9.70;;;;;;;-0.17;85.56;98957.66;4993001;28;20048;-52
2021/01/24 08:28:31;;;;;;;21.67;10.07;;;;;;;-0.15;85.54;98970.94;4992023;28;20134;-53
2021/01/24 08:31:01;;;;;;;30.10;11.52;;;;;;;-0.15;85.76;98965.50;4991127;28;20162;-49
2021/01/24 08:33:28;;;;;;;27.15;12.05;;;;;;;-0.13;85.72;98968.69;4991836;28;20053;-51
2021/01/24 08:36:14;;;;;;;29.17;11.57;;;;;;;-0.11;85.62;98988.25;4988997;28;20046;-52
2021/01/24 08:38:42;;;;;;;37.53;12.05;;;;;;;-0.13;86.07;98985.81;4985900;28;20050;-50
2021/01/24 08:41:13;;;;;;;33.75;12.10;;;;;;;-0.15;86.02;98989.97;4971291;28;20114;-50
2021/01/24 08:43:40;;;;;;;33.40;12.13;;;;;;;-0.15;86.16;98993.50;4977359;28;20060;-52
2021/01/24 08:46:22;;;;;;;24.10;10.65;;;;;;;-0.14;86.33;98988.88;4992904;28;20062;-52
2021/01/24 08:49:12;;;;;;;25.35;11.35;;;;;;;-0.11;86.34;98996.41;4974403;28;20501;-47
2021/01/24 08:51:43;;;;;;;27.98;13.10;;;;;;;-0.04;86.04;98996.72;4987450;28;20051;-50
2021/01/24 08:54:26;;;;;;;27.10;11.60;;;;;;;-0.01;86.38;98990.66;4979104;28;20564;-49
2021/01/24 08:57:20;;;;;;;27.38;11.93;;;;;;;0.00;86.22;98995.75;4975213;28;20794;-50
2021/01/24 08:59:49;;;;;;;25.33;11.35;;;;;;;0.06;86.19;98993.69;4992144;28;20062;-47
2021/01/24 09:02:38;;;;;;;23.05;10.88;;;;;;;0.05;86.43;99002.97;4990283;28;20389;-49
2021/01/24 09:05:08;;;;;;;27.10;10.45;;;;;;;0.09;86.27;99001.22;4967242;28;20440;-52
2021/01/24 09:07:36;;;;;;;27.42;10.63;;;;;;;0.10;86.23;99002.81;4976242;28;20046;-49
2021/01/24 09:10:31;;;;;;;22.73;10.48;;;;;;;0.15;86.33;99004.59;4988016;28;20105;-53
2021/01/24 09:13:03;;;;;;;23.10;9.90;;;;;;;0.13;86.46;99012.28;4981536;28;20066;-48
2021/01/24 09:15:31;;;;;;;19.53;10.30;;;;;;;0.15;86.14;99023.63;4975360;28;20073;-48
2021/01/24 09:18:00;;;;;;;24.88;10.98;;;;;;;0.16;86.29;99017.06;4991107;28;20046;-50
2021/01/24 09:20:28;;;;;;;26.73;12.07;;;;;;;0.19;86.36;99014.50;4973119;28;20046;-54
2021/01/24 09:22:56;;;;;;;32.15;11.85;;;;;;;0.22;86.17;99011.16;4989204;28;20054;-49
2021/01/24 09:25:22;;;;;;;23.48;12.80;;;;;;;0.23;86.46;99023.66;4973979;28;20066;-51
2021/01/24 09:27:48;;;;;;;15.85;8.95;;;;;;;0.21;86.25;99023.16;4991915;28;20524;-52
2021/01/24 09:30:16;;;;;;;19.23;9.10;;;;;;;0.21;86.18;99028.63;4972117;28;20129;-50
2021/01/24 09:32:43;;;;;;;19.23;8.93;;;;;;;0.21;86.48;99038.69;4978363;28;20097;-48
2021/01/24 09:35:10;;;;;;;18.90;8.90;;;;;;;0.26;86.28;99035.81;4968376;28;20046;-51
2021/01/24 09:37:37;;;;;;;21.65;8.75;;;;;;;0.30;86.28;99050.38;4974085;28;20132;-48
2021/01/24 09:40:05;;;;;;;18.35;10.10;;;;;;;0.34;86.46;99048.63;4990665;28;20034;-49
2021/01/24 09:42:32;;;;;;;19.17;8.32;;;;;;;0.33;86.38;99057.91;4972891;28;20157;-50
2021/01/24 09:44:58;;;;;;;16.20;8.07;;;;;;;0.36;86.44;99046.38;4983767;28;20068;-51
2021/01/24 09:47:25;;;;;;;17.52;9.32;;;;;;;0.36;86.38;99052.63;4979753;28;20046;-56
2021/01/24 09:49:51;;;;;;;16.90;8.20;;;;;;;0.36;86.17;99058.06;4990788;28;20129;-49
2021/01/24 09:52:18;;;;;;;19.45;9.13;;;;;;;0.33;86.24;99066.88;4979145;28;20137;-48
2021/01/24 09:54:44;;;;;;;18.92;8.88;;;;;;;0.32;86.44;99059.81;4991221;28;20046;-52
2021/01/24 09:57:10;;;;;;;17.65;9.25;;;;;;;0.35;86.40;99067.34;4988887;28;20046;-49
2021/01/24 09:59:36;;;;;;;21.98;10.65;;;;;;;0.39;86.39;99068.31;4988721;28;20043;-51
2021/01/24 10:02:03;;;;;;;22.08;9.57;;;;;;;0.44;86.17;99073.63;4990863;28;20400;-49
2021/01/24 10:04:30;;;;;;;21.27;10.70;;;;;;;0.43;86.03;99072.00;4990281;28;20468;-51
2021/01/24 10:06:56;;;;;;;22.55;12.10;;;;;;;0.46;86.24;99079.53;4973712;28;20097;-52
2021/01/24 10:09:22;;;;;;;19.58;9.80;;;;;;;0.51;86.28;99073.94;4989355;28;20050;-51
2021/01/24 10:11:49;;;;;;;21.70;9.65;;;;;;;0.56;86.18;99071.03;4972333;28;20116;-56
2021/01/24 10:14:18;;;;;;;19.88;9.13;;;;;;;0.60;86.04;99074.75;4990263;28;20046;-52
2021/01/24 10:16:44;;;;;;;23.65;12.45;;;;;;;0.65;86.05;99079.22;4972294;28;20057;-47
2021/01/24 10:19:11;;;;;;;24.00;11.63;;;;;;;0.67;85.95;99074.25;4988346;28;20377;-47
2021/01/24 10:21:37;;;;;;;16.83;8.77;;;;;;;0.75;86.00;99081.63;4989713;28;20050;-47
2021/01/24 10:24:04;;;;;;;19.77;10.27;;;;;;;0.80;86.10;99083.38;4990458;28;20074;-50
2021/01/24 10:26:30;;;;;;;16.65;8.75;;;;;;;0.81;85.99;99084.97;4990529;28;20078;-49
2021/01/24 10:28:56;;;;;;;14.55;8.75;;;;;;;0.80;85.91;99088.81;4991025;28;20061;-47
2021/01/24 10:31:23;;;;;;;20.83;10.48;;;;;;;0.81;86.09;99090.44;4990273;28;20042;-46
2021/01/24 10:33:49;;;;;;;22.27;11.07;;;;;;;0.81;85.47;99090.44;4984555;28;20047;-51
2021/01/24 10:36:15;;;;;;;22.67;11.68;;;;;;;0.81;85.94;99091.25;4987199;28;20068;-54
2021/01/24 10:38:43;;;;;;;20.23;10.13;;;;;;;0.82;85.59;99092.03;4990934;28;20129;-47
2021/01/24 10:41:09;;;;;;;19.23;10.25;;;;;;;0.81;85.94;99095.88;4972987;28;20500;-48
2021/01/24 10:43:35;;;;;;;22.90;10.88;;;;;;;0.81;85.91;99088.50;4990660;28;20117;-46
2021/01/24 10:46:02;;;;;;;20.75;9.60;;;;;;;0.84;85.56;99097.97;4988912;28;20126;-48
2021/01/24 10:48:28;;;;;;;14.88;9.55;;;;;;;0.84;85.84;99100.69;4989175;28;20145;-50
2021/01/24 10:50:54;;;;;;;17.02;8.80;;;;;;;0.84;85.53;99106.94;4986917;28;20074;-54
2021/01/24 10:53:21;;;;;;;19.73;9.98;;;;;;;0.84;85.99;99111.59;4990140;28;20069;-46
2021/01/24 10:55:47;;;;;;;19.60;10.15;;;;;;;0.84;86.04;99108.88;4989740;28;20113;-46
2021/01/24 10:58:13;;;;;;;15.70;7.80;;;;;;;0.83;85.81;99107.25;4970360;28;20079;-47
2021/01/24 11:00:40;;;;;;;12.27;8.05;;;;;;;0.85;85.77;99108.53;4990064;28;20046;-48
2021/01/24 11:03:06;;;;;;;16.30;8.02;;;;;;;0.84;85.86;99119.75;4990141;28;20146;-52
2021/01/24 11:05:33;;;;;;;14.48;7.50;;;;;;;0.86;85.88;99121.03;4989238;28;20042;-46
2021/01/24 11:07:59;;;;;;;14.05;7.20;;;;;;;0.85;85.72;99118.66;4983123;28;20784;-51
2021/01/24 11:10:26;;;;;;;12.80;7.45;;;;;;;0.84;85.80;99117.03;4980429;28;20059;-46
2021/01/24 11:12:53;;;;;;;14.88;7.85;;;;;;;0.85;85.89;99113.19;4988568;28;20100;-51
2021/01/24 11:15:19;;;;;;;16.50;8.43;;;;;;;0.89;85.74;99120.41;4989892;28;20120;-48
2021/01/24 11:17:48;;;;;;;16.10;7.95;;;;;;;0.93;85.75;99120.53;4989909;28;20050;-48
2021/01/24 11:20:16;;;;;;;11.98;8.43;;;;;;;0.97;85.82;99122.31;4989999;28;20386;-46
2021/01/24 11:22:42;;;;;;;21.25;10.18;;;;;;;1.01;85.78;99126.00;4966975;28;20054;-48
2021/01/24 11:25:09;;;;;;;15.07;8.77;;;;;;;1.07;85.80;99126.63;4988810;28;20074;-46
2021/01/24 11:27:39;;;;;;;21.40;10.13;;;;;;;1.08;85.54;99125.53;4971607;28;20121;-47
2021/01/24 11:30:08;;;;;;;22.40;11.55;;;;;;;1.09;85.41;99127.09;4989974;28;20135;-49
2021/01/24 11:32:35;;;;;;;19.65;10.80;;;;;;;1.12;85.29;99126.47;4980416;28;20141;-46
2021/01/24 11:35:15;;;;;;;19.60;9.73;;;;;;;1.13;85.16;99130.81;4982666;28;20404;-49
2021/01/24 11:37:42;;;;;;;20.33;9.82;;;;;;;1.16;85.33;99141.88;4989164;28;20054;-49
2021/01/24 11:40:10;;;;;;;16.02;9.85;;;;;;;1.16;85.29;99132.88;4979630;28;20045;-51
2021/01/24 11:42:36;;;;;;;22.75;11.90;;;;;;;1.13;85.28;99131.63;4986708;28;20085;-56
2021/01/24 11:45:05;;;;;;;15.45;8.13;;;;;;;1.13;84.92;99137.06;4989767;28;20129;-50